Time;durP1;ratioP1;P1;durP2;ratioP2;P2;SDS_P1;SDS_P2;PMS_P1;PMS_P2;Temp;Humidity;BMP_temperature;BMP_pressure;BME280_temperature;BME280_humidity;BME280_pressure;Samples;Min_cycle;Max_cycle;Signal;HPM_P1;HPM_P2
2022/10/20 00:04:56;;;;;;;38.70;23.30;;;;;;;;;;10311243;28;20097;-77
2022/10/20 00:09:56;;;;;;;36.28;21.63;;;;;;;;;;10313884;28;20130;-82
2022/10/20 00:14:56;;;;;;;37.85;20.65;;;;;;;;;;10307503;28;20401;-76
2022/10/20 00:19:57;;;;;;;35.40;18.98;;;;;;;;;;10318662;28;20473;-80
2022/10/20 00:24:57;;;;;;;26.27;17.98;;;;;;;;;;10319541;28;20021;-78
2022/10/20 00:29:57;;;;;;;29.60;18.30;;;;;;;;;;10326938;28;20015;-80
2022/10/20 00:34:58;;;;;;;26.38;16.80;;;;;;;;;;10327184;28;20018;-80
2022/10/20 00:39:58;;;;;;;28.55;18.13;;;;;;;;;;10327039;28;20026;-80
2022/10/20 00:44:59;;;;;;;29.92;15.38;;;;;;;;;;10312803;28;20081;-80
2022/10/20 00:50:20;;;;;;;29.58;16.58;;;;;;;;;;10326110;28;20046;-74
2022/10/20 00:55:25;;;;;;;23.48;15.30;;;;;;;;;;10326030;28;20120;-83
2022/10/20 01:00:25;;;;;;;20.35;13.65;;;;;;;;;;10326523;28;20528;-75
2022/10/20 01:05:26;;;;;;;23.25;14.55;;;;;;;;;;10327916;28;20025;-80
2022/10/20 01:10:30;;;;;;;23.33;12.88;;;;;;;;;;10326109;28;20043;-75
2022/10/20 01:15:34;;;;;;;24.77;12.95;;;;;;;;;;10328134;28;20027;-83
2022/10/20 01:20:52;;;;;;;20.38;12.18;;;;;;;;;;10316758;28;20030;-83
2022/10/20 01:25:52;;;;;;;15.50;10.55;;;;;;;;;;10306988;28;20469;-82
2022/10/20 01:30:57;;;;;;;19.98;12.38;;;;;;;;;;10310534;28;20026;-77
2022/10/20 01:36:00;;;;;;;19.48;12.38;;;;;;;;;;10283446;28;20394;-79
2022/10/20 01:41:27;;;;;;;17.40;11.05;;;;;;;;;;10304362;28;20389;-76
2022/10/20 01:46:27;;;;;;;19.35;10.25;;;;;;;;;;10294633;28;20121;-74
2022/10/20 01:51:28;;;;;;;15.35;10.63;;;;;;;;;;10325458;28;20060;-75
2022/10/20 01:56:38;;;;;;;15.23;10.85;;;;;;;;;;10324185;28;20482;-75
2022/10/20 02:01:51;;;;;;;18.08;10.70;;;;;;;;;;10323679;28;20041;-76
2022/10/20 02:07:03;;;;;;;19.17;11.95;;;;;;;;;;10306930;28;20026;-74
2022/10/20 02:12:05;;;;;;;18.13;10.40;;;;;;;;;;10321998;28;20157;-77
2022/10/20 02:17:09;;;;;;;21.30;12.10;;;;;;;;;;10306878;28;20456;-79
2022/10/20 02:22:10;;;;;;;24.30;12.40;;;;;;;;;;10322078;28;20030;-78
2022/10/20 02:27:43;;;;;;;21.58;12.15;;;;;;;;;;10296447;28;20179;-74
2022/10/20 02:32:48;;;;;;;21.63;12.57;;;;;;;;;;10279266;28;20065;-77
2022/10/20 02:37:48;;;;;;;19.95;12.20;;;;;;;;;;10322180;28;20021;-77
2022/10/20 02:42:48;;;;;;;15.93;11.48;;;;;;;;;;10321799;28;20035;-73
2022/10/20 02:47:49;;;;;;;19.97;13.23;;;;;;;;;;10320614;28;20027;-84
2022/10/20 02:52:49;;;;;;;26.20;13.23;;;;;;;;;;10322515;28;20034;-73
2022/10/20 02:57:50;;;;;;;21.25;12.90;;;;;;;;;;10321160;28;20473;-74
2022/10/20 03:02:50;;;;;;;19.67;13.02;;;;;;;;;;10320947;28;20022;-81
2022/10/20 03:07:51;;;;;;;18.45;12.15;;;;;;;;;;10304148;28;20088;-79
2022/10/20 03:12:52;;;;;;;21.95;14.10;;;;;;;;;;10321391;28;20523;-80
2022/10/20 03:17:52;;;;;;;20.13;13.57;;;;;;;;;;10287230;28;20461;-80
2022/10/20 03:22:52;;;;;;;22.90;15.93;;;;;;;;;;10320651;28;20404;-81
2022/10/20 03:27:52;;;;;;;22.60;13.27;;;;;;;;;;10305520;28;20022;-81
2022/10/20 03:32:54;;;;;;;24.63;13.30;;;;;;;;;;10300402;28;20018;-78
2022/10/20 03:37:54;;;;;;;27.90;13.98;;;;;;;;;;10298600;28;20018;-79
2022/10/20 03:42:54;;;;;;;22.88;14.00;;;;;;;;;;10319952;28;20022;-80
2022/10/20 03:47:55;;;;;;;21.95;12.90;;;;;;;;;;10310034;28;20097;-77
2022/10/20 03:52:55;;;;;;;23.45;14.52;;;;;;;;;;10299911;28;20542;-73
2022/10/20 03:57:56;;;;;;;24.03;12.60;;;;;;;;;;10317571;28;20030;-73
2022/10/20 04:02:56;;;;;;;24.33;14.60;;;;;;;;;;10317467;28;20273;-74
2022/10/20 04:07:57;;;;;;;20.98;13.88;;;;;;;;;;10316660;28;20026;-73
2022/10/20 04:12:58;;;;;;;22.88;13.73;;;;;;;;;;10302984;28;20038;-74
2022/10/20 04:17:58;;;;;;;20.75;13.07;;;;;;;;;;10339978;28;20504;-82
2022/10/20 04:22:58;;;;;;;22.60;13.33;;;;;;;;;;10314197;28;20489;-78
2022/10/20 04:27:59;;;;;;;23.58;14.57;;;;;;;;;;10304600;28;20321;-76
2022/10/20 04:32:59;;;;;;;21.92;13.35;;;;;;;;;;10296662;28;20472;-74
2022/10/20 04:37:59;;;;;;;31.10;16.30;;;;;;;;;;10318751;28;20105;-76
2022/10/20 04:43:00;;;;;;;19.90;12.70;;;;;;;;;;10302413;28;20116;-75
2022/10/20 04:48:01;;;;;;;22.55;13.13;;;;;;;;;;10314108;28;20500;-80
2022/10/20 04:53:01;;;;;;;20.27;13.45;;;;;;;;;;10305896;28;20031;-74
2022/10/20 04:58:01;;;;;;;22.05;13.73;;;;;;;;;;10306998;28;20077;-79
2022/10/20 05:03:02;;;;;;;31.93;14.97;;;;;;;;;;10316965;28;20054;-76
2022/10/20 05:08:02;;;;;;;21.73;12.48;;;;;;;;;;10300914;28;20181;-76
2022/10/20 05:13:02;;;;;;;21.83;12.60;;;;;;;;;;10317377;28;20030;-73
2022/10/20 05:18:02;;;;;;;23.45;12.57;;;;;;;;;;10319982;28;20153;-74
2022/10/20 05:23:03;;;;;;;26.23;13.90;;;;;;;;;;10324480;28;20029;-76
2022/10/20 05:28:03;;;;;;;32.05;14.82;;;;;;;;;;10318002;28;20033;-73
2022/10/20 05:33:03;;;;;;;18.00;11.45;;;;;;;;;;10309335;28;20031;-77
2022/10/20 05:38:04;;;;;;;26.55;11.75;;;;;;;;;;10293999;28;20138;-76
2022/10/20 05:43:04;;;;;;;27.38;11.05;;;;;;;;;;10304317;28;20045;-77
2022/10/20 05:48:05;;;;;;;21.02;12.88;;;;;;;;;;10294916;28;20029;-78
2022/10/20 05:53:05;;;;;;;22.60;12.75;;;;;;;;;;10315527;28;20085;-75
2022/10/20 05:58:05;;;;;;;24.67;13.88;;;;;;;;;;10317911;28;20882;-74
2022/10/20 06:03:06;;;;;;;24.25;14.07;;;;;;;;;;10325191;28;20377;-73
2022/10/20 06:08:06;;;;;;;25.52;14.68;;;;;;;;;;10331159;28;20572;-77
2022/10/20 06:13:06;;;;;;;21.65;12.30;;;;;;;;;;10318648;28;20500;-77
2022/10/20 06:18:06;;;;;;;24.93;13.37;;;;;;;;;;10373588;22;20069;-76
2022/10/20 06:23:07;;;;;;;27.27;12.80;;;;;;;;;;10324368;28;20033;-78
2022/10/20 06:28:07;;;;;;;19.88;13.20;;;;;;;;;;10322829;28;20034;-76
2022/10/20 06:33:11;;;;;;;20.67;12.52;;;;;;;;;;10322535;28;20116;-77
2022/10/20 06:38:12;;;;;;;28.02;12.50;;;;;;;;;;10324462;28;20031;-80
2022/10/20 06:43:12;;;;;;;23.90;11.27;;;;;;;;;;10308185;28;20092;-75
2022/10/20 06:48:13;;;;;;;29.55;12.63;;;;;;;;;;10293402;28;20509;-75
2022/10/20 06:53:13;;;;;;;22.95;12.57;;;;;;;;;;10296932;28;20029;-77
2022/10/20 06:58:13;;;;;;;21.23;11.95;;;;;;;;;;10293652;28;20100;-73
2022/10/20 07:03:13;;;;;;;21.52;11.85;;;;;;;;;;10307861;28;20587;-73
2022/10/20 07:08:13;;;;;;;17.25;11.80;;;;;;;;;;10307102;28;20378;-78
2022/10/20 07:13:14;;;;;;;15.57;11.02;;;;;;;;;;10306712;28;20590;-77
2022/10/20 07:18:14;;;;;;;25.02;12.00;;;;;;;;;;10313738;28;20060;-80
2022/10/20 07:23:14;;;;;;;22.10;10.77;;;;;;;;;;10283130;28;20030;-72
2022/10/20 07:28:14;;;;;;;22.38;11.00;;;;;;;;;;10295779;28;20029;-77
2022/10/20 07:33:15;;;;;;;15.00;10.25;;;;;;;;;;10288119;28;20481;-77
2022/10/20 07:38:15;;;;;;;16.17;10.37;;;;;;;;;;10294702;28;20037;-75
2022/10/20 07:43:15;;;;;;;18.90;11.18;;;;;;;;;;10294033;28;20038;-79
2022/10/20 07:48:16;;;;;;;15.43;10.38;;;;;;;;;;10306833;28;20037;-78
2022/10/20 07:53:16;;;;;;;17.53;9.67;;;;;;;;;;10287849;28;20602;-78
2022/10/20 07:58:16;;;;;;;23.05;10.35;;;;;;;;;;10301168;28;20461;-80
2022/10/20 08:03:16;;;;;;;18.27;11.15;;;;;;;;;;10288145;28;20548;-77
2022/10/20 08:08:17;;;;;;;20.05;11.07;;;;;;;;;;10297667;28;20049;-77
2022/10/20 08:13:17;;;;;;;16.00;9.75;;;;;;;;;;10300920;28;20415;-75
2022/10/20 08:18:18;;;;;;;16.55;9.27;;;;;;;;;;10307391;28;20054;-74
2022/10/20 08:23:18;;;;;;;16.50;9.38;;;;;;;;;;10308744;28;20094;-76
2022/10/20 08:28:18;;;;;;;25.77;10.93;;;;;;;;;;10305350;28;20453;-75
2022/10/20 08:33:19;;;;;;;15.95;9.15;;;;;;;;;;10299308;28;20528;-77
2022/10/20 08:38:19;;;;;;;19.10;11.10;;;;;;;;;;10355683;23;20535;-77
2022/10/20 08:43:20;;;;;;;14.23;8.30;;;;;;;;;;10280416;28;20479;-79
2022/10/20 08:48:26;;;;;;;10.88;6.55;;;;;;;;;;10310213;28;20030;-74
2022/10/20 08:53:28;;;;;;;14.20;7.82;;;;;;;;;;10295554;28;20544;-76
2022/10/20 08:58:28;;;;;;;13.43;6.80;;;;;;;;;;10293784;28;20038;-77
2022/10/20 09:03:31;;;;;;;15.00;6.70;;;;;;;;;;10293665;28;20101;-75
2022/10/20 09:08:32;;;;;;;10.43;5.75;;;;;;;;;;10286844;28;20036;-77
2022/10/20 09:13:35;;;;;;;9.07;5.85;;;;;;;;;;10306043;28;20711;-75
2022/10/20 09:18:35;;;;;;;7.20;5.13;;;;;;;;;;10291315;28;20405;-78
2022/10/20 09:23:37;;;;;;;8.27;5.00;;;;;;;;;;10289750;28;20042;-76
2022/10/20 09:28:38;;;;;;;6.32;4.57;;;;;;;;;;10285949;28;20142;-73
2022/10/20 09:33:38;;;;;;;9.48;5.03;;;;;;;;;;10289612;28;20799;-75
2022/10/20 09:38:42;;;;;;;5.70;4.35;;;;;;;;;;10301346;28;20548;-76
2022/10/20 09:43:53;;;;;;;10.13;4.00;;;;;;;;;;10289716;28;20033;-73
2022/10/20 09:48:54;;;;;;;9.85;3.60;;;;;;;;;;10307762;28;20083;-78
2022/10/20 09:53:59;;;;;;;10.30;4.18;;;;;;;;;;10317394;28;20033;-80
2022/10/20 09:59:01;;;;;;;7.70;2.10;;;;;;;;;;10311055;28;20359;-76
2022/10/20 10:04:01;;;;;;;7.90;2.25;;;;;;;;;;10308589;28;20089;-79
2022/10/20 10:09:02;;;;;;;3.28;2.38;;;;;;;;;;10307254;28;20669;-72
2022/10/20 10:14:03;;;;;;;3.65;2.35;;;;;;;;;;10314558;28;20508;-76
2022/10/20 10:19:04;;;;;;;4.35;2.20;;;;;;;;;;10295489;28;20504;-79
2022/10/20 10:24:04;;;;;;;4.05;2.58;;;;;;;;;;10323317;28;20026;-79
2022/10/20 10:29:15;;;;;;;4.93;2.60;;;;;;;;;;10325739;28;20460;-79
2022/10/20 10:34:15;;;;;;;6.07;2.15;;;;;;;;;;10312764;28;20587;-75
2022/10/20 10:39:15;;;;;;;5.47;2.30;;;;;;;;;;10309575;28;20065;-79
2022/10/20 10:44:34;;;;;;;5.28;1.98;;;;;;;;;;10306233;28;20109;-77
2022/10/20 10:49:38;;;;;;;4.30;2.20;;;;;;;;;;10302750;28;20026;-74
2022/10/20 10:54:41;;;;;;;5.15;2.20;;;;;;;;;;10302685;28;20037;-74
2022/10/20 10:59:42;;;;;;;7.32;2.45;;;;;;;;;;10307557;28;20052;-77
2022/10/20 11:05:01;;;;;;;10.23;2.70;;;;;;;;;;10290530;28;20429;-76
2022/10/20 11:10:11;;;;;;;6.60;3.20;;;;;;;;;;10307033;28;20035;-78
2022/10/20 11:15:21;;;;;;;2.78;2.05;;;;;;;;;;10305882;28;20448;-76
2022/10/20 11:20:25;;;;;;;5.30;1.75;;;;;;;;;;10285342;28;20165;-80
2022/10/20 11:25:31;;;;;;;5.35;2.47;;;;;;;;;;10286132;28;20031;-76
2022/10/20 11:30:32;;;;;;;5.97;4.00;;;;;;;;;;10279740;28;20019;-78
2022/10/20 11:35:37;;;;;;;5.25;2.80;;;;;;;;;;10285797;28;20114;-74
2022/10/20 11:40:39;;;;;;;4.38;3.05;;;;;;;;;;10313720;28;20027;-77
2022/10/20 11:45:53;;;;;;;4.43;3.05;;;;;;;;;;10298154;28;20435;-75
2022/10/20 11:51:14;;;;;;;5.28;3.63;;;;;;;;;;10296171;28;20031;-77
2022/10/20 11:56:24;;;;;;;8.52;3.78;;;;;;;;;;10291669;28;20182;-75
2022/10/20 12:01:29;;;;;;;10.07;4.03;;;;;;;;;;10309435;28;20080;-75
2022/10/20 12:06:41;;;;;;;5.32;4.28;;;;;;;;;;10280787;28;20091;-77
2022/10/20 12:11:53;;;;;;;6.72;3.55;;;;;;;;;;10279910;28;20026;-78
2022/10/20 12:16:53;;;;;;;7.20;3.67;;;;;;;;;;10285669;28;20081;-78
2022/10/20 12:22:01;;;;;;;4.82;3.47;;;;;;;;;;10303397;28;20153;-77
2022/10/20 12:27:08;;;;;;;5.80;3.78;;;;;;;;;;10304050;28;20536;-79
2022/10/20 12:32:22;;;;;;;11.75;4.03;;;;;;;;;;10307701;28;20034;-77
2022/10/20 12:37:22;;;;;;;4.85;3.38;;;;;;;;;;10307305;28;20059;-80
2022/10/20 12:42:28;;;;;;;6.97;3.92;;;;;;;;;;10300665;28;20106;-78
2022/10/20 12:47:29;;;;;;;5.70;3.50;;;;;;;;;;10291723;28;20109;-73
2022/10/20 12:52:31;;;;;;;9.82;4.18;;;;;;;;;;10261643;28;20397;-73
2022/10/20 12:57:34;;;;;;;4.80;3.97;;;;;;;;;;10316182;28;20034;-78
2022/10/20 13:02:48;;;;;;;5.55;3.85;;;;;;;;;;10301872;28;20023;-75
2022/10/20 13:07:49;;;;;;;4.97;3.17;;;;;;;;;;10289160;28;20034;-77
2022/10/20 13:12:49;;;;;;;5.30;3.53;;;;;;;;;;10305350;28;20041;-76
2022/10/20 13:17:49;;;;;;;6.82;2.92;;;;;;;;;;10303443;28;20073;-76
2022/10/20 13:22:50;;;;;;;5.88;3.35;;;;;;;;;;10307486;28;20153;-78
2022/10/20 13:28:00;;;;;;;5.60;3.33;;;;;;;;;;10306038;28;20578;-76
2022/10/20 13:33:05;;;;;;;5.55;3.88;;;;;;;;;;10321791;28;20096;-81
2022/10/20 13:38:11;;;;;;;5.28;3.83;;;;;;;;;;10316178;28;20086;-73
2022/10/20 13:43:30;;;;;;;6.68;3.42;;;;;;;;;;10299848;28;20038;-81
2022/10/20 13:48:54;;;;;;;7.70;3.90;;;;;;;;;;10314489;28;20456;-74
2022/10/20 13:53:56;;;;;;;10.90;3.80;;;;;;;;;;10282865;28;20600;-74
2022/10/20 13:58:58;;;;;;;6.03;4.03;;;;;;;;;;10319461;28;20053;-75
2022/10/20 14:03:58;;;;;;;4.10;2.97;;;;;;;;;;10300931;28;20030;-73
2022/10/20 14:09:08;;;;;;;5.60;3.20;;;;;;;;;;10319821;28;20034;-79
2022/10/20 14:14:12;;;;;;;6.55;3.65;;;;;;;;;;10312441;28;20034;-72
2022/10/20 14:19:12;;;;;;;6.50;2.88;;;;;;;;;;10317742;28;20029;-72
2022/10/20 14:24:15;;;;;;;7.75;4.35;;;;;;;;;;10326462;28;20725;-77
2022/10/20 14:29:17;;;;;;;8.77;4.43;;;;;;;;;;10330662;28;20097;-78
2022/10/20 14:34:22;;;;;;;8.82;2.97;;;;;;;;;;10325976;28;20069;-77
2022/10/20 14:39:24;;;;;;;7.22;3.22;;;;;;;;;;10314917;28;20046;-78
2022/10/20 14:44:25;;;;;;;15.02;3.10;;;;;;;;;;10308199;28;20064;-78
2022/10/20 14:49:25;;;;;;;5.20;3.30;;;;;;;;;;10301940;28;20788;-74
2022/10/20 14:54:26;;;;;;;11.20;4.10;;;;;;;;;;10283493;28;20031;-76
2022/10/20 14:59:30;;;;;;;4.80;3.50;;;;;;;;;;10302802;28;20035;-78
2022/10/20 15:04:31;;;;;;;6.38;3.05;;;;;;;;;;10307012;28;20035;-76
2022/10/20 15:09:38;;;;;;;4.20;3.03;;;;;;;;;;10287644;28;20432;-80
2022/10/20 15:14:39;;;;;;;13.05;3.30;;;;;;;;;;10290626;28;20157;-74
2022/10/20 15:19:39;;;;;;;6.30;3.40;;;;;;;;;;10280004;28;20484;-79
2022/10/20 15:24:41;;;;;;;4.88;3.47;;;;;;;;;;10288345;28;20034;-77
2022/10/20 15:29:49;;;;;;;6.78;3.55;;;;;;;;;;10265848;28;20412;-72
2022/10/20 15:34:49;;;;;;;12.73;4.50;;;;;;;;;;10295192;28;20401;-79
2022/10/20 15:39:49;;;;;;;12.35;4.40;;;;;;;;;;10312388;28;20472;-80
2022/10/20 15:44:50;;;;;;;15.57;4.53;;;;;;;;;;10298174;28;20088;-79
2022/10/20 15:49:50;;;;;;;6.13;4.70;;;;;;;;;;10305836;28;20118;-74
2022/10/20 15:54:50;;;;;;;11.30;5.28;;;;;;;;;;10291169;28;20034;-79
2022/10/20 15:59:50;;;;;;;11.38;4.78;;;;;;;;;;10287523;28;20084;-76
2022/10/20 16:04:51;;;;;;;13.70;6.78;;;;;;;;;;10293125;28;20053;-74
2022/10/20 16:09:51;;;;;;;14.25;5.60;;;;;;;;;;10311412;28;20026;-75
2022/10/20 16:14:51;;;;;;;14.38;5.82;;;;;;;;;;10304206;28;20026;-75
2022/10/20 16:19:52;;;;;;;13.83;5.90;;;;;;;;;;10308442;28;20133;-81
2022/10/20 16:24:52;;;;;;;14.25;6.13;;;;;;;;;;10290780;28;20991;-80
2022/10/20 16:29:52;;;;;;;14.90;6.20;;;;;;;;;;10285937;28;20443;-77
2022/10/20 16:34:52;;;;;;;10.80;5.05;;;;;;;;;;10280372;28;20508;-78
2022/10/20 16:39:53;;;;;;;10.07;4.90;;;;;;;;;;10283923;28;20154;-74
2022/10/20 16:44:53;;;;;;;12.13;5.20;;;;;;;;;;10261770;28;20023;-79
2022/10/20 16:49:53;;;;;;;13.07;4.80;;;;;;;;;;10295312;28;20037;-81
2022/10/20 16:54:54;;;;;;;10.80;5.10;;;;;;;;;;10296904;28;20026;-73
2022/10/20 16:59:54;;;;;;;13.13;5.28;;;;;;;;;;10306912;28;20022;-74
2022/10/20 17:04:55;;;;;;;11.13;5.93;;;;;;;;;;10327883;28;20030;-74
2022/10/20 17:09:55;;;;;;;8.85;4.78;;;;;;;;;;10317999;28;20034;-77
2022/10/20 17:14:56;;;;;;;13.30;5.22;;;;;;;;;;10290699;28;20031;-73
2022/10/20 17:19:57;;;;;;;11.02;4.90;;;;;;;;;;10312999;28;20499;-75
2022/10/20 17:24:58;;;;;;;8.18;6.03;;;;;;;;;;10309877;28;20035;-77
2022/10/20 17:29:58;;;;;;;8.15;4.82;;;;;;;;;;10312569;28;20514;-72
2022/10/20 17:34:58;;;;;;;10.63;4.78;;;;;;;;;;10311340;28;20035;-71
2022/10/20 17:39:58;;;;;;;12.30;5.05;;;;;;;;;;10299645;28;20153;-73
2022/10/20 17:44:59;;;;;;;13.02;4.88;;;;;;;;;;10312647;28;20034;-72
2022/10/20 17:49:59;;;;;;;10.00;5.57;;;;;;;;;;10320214;28;20027;-72
2022/10/20 17:54:59;;;;;;;10.27;4.80;;;;;;;;;;10308346;28;20034;-77
2022/10/20 17:59:59;;;;;;;8.93;4.75;;;;;;;;;;10306075;28;20461;-77
2022/10/20 18:05:00;;;;;;;8.75;5.15;;;;;;;;;;10312924;28;20440;-77
2022/10/20 18:10:00;;;;;;;8.70;5.20;;;;;;;;;;10307263;28;20042;-75
2022/10/20 18:15:00;;;;;;;14.20;6.40;;;;;;;;;;10325158;28;20041;-73
2022/10/20 18:20:00;;;;;;;9.23;5.97;;;;;;;;;;10297686;28;20046;-77
2022/10/20 18:25:01;;;;;;;12.05;5.47;;;;;;;;;;10310452;28;20060;-74
2022/10/20 18:30:01;;;;;;;15.50;6.53;;;;;;;;;;10308307;28;20057;-75
2022/10/20 18:35:01;;;;;;;11.00;5.77;;;;;;;;;;10305597;28;20027;-73
2022/10/20 18:40:02;;;;;;;11.43;6.17;;;;;;;;;;10315802;28;20058;-73
2022/10/20 18:45:02;;;;;;;12.60;6.18;;;;;;;;;;10293702;28;20019;-76
2022/10/20 18:50:03;;;;;;;9.50;5.80;;;;;;;;;;10282892;28;20019;-76
2022/10/20 18:55:03;;;;;;;9.10;5.63;;;;;;;;;;10294574;28;20535;-71
2022/10/20 19:00:07;;;;;;;10.70;5.40;;;;;;;;;;10300278;28;20352;-72
2022/10/20 19:05:08;;;;;;;12.85;6.40;;;;;;;;;;10277674;28;20445;-72
2022/10/20 19:10:08;;;;;;;12.98;6.65;;;;;;;;;;10307510;28;20067;-74
2022/10/20 19:15:08;;;;;;;15.38;6.60;;;;;;;;;;10285284;28;20048;-73
2022/10/20 19:20:09;;;;;;;10.33;7.03;;;;;;;;;;10288015;28;20029;-74
2022/10/20 19:25:09;;;;;;;12.03;7.07;;;;;;;;;;10294524;28;20022;-73
2022/10/20 19:30:09;;;;;;;12.57;6.25;;;;;;;;;;10335984;28;20575;-73
2022/10/20 19:35:10;;;;;;;16.52;6.57;;;;;;;;;;10307491;28;20030;-72
2022/10/20 19:40:11;;;;;;;14.07;6.63;;;;;;;;;;10309920;28;20054;-73
2022/10/20 19:45:11;;;;;;;9.70;7.00;;;;;;;;;;10298272;28;20087;-74
2022/10/20 19:50:11;;;;;;;14.10;7.55;;;;;;;;;;10306403;28;20459;-77
2022/10/20 19:55:11;;;;;;;14.00;6.70;;;;;;;;;;10320435;28;20022;-73
2022/10/20 20:00:12;;;;;;;16.33;7.88;;;;;;;;;;10315259;28;20037;-76
2022/10/20 20:05:12;;;;;;;15.15;8.20;;;;;;;;;;10310116;28;20584;-75
2022/10/20 20:10:12;;;;;;;20.23;7.95;;;;;;;;;;10308891;28;20031;-75
2022/10/20 20:15:13;;;;;;;17.77;8.40;;;;;;;;;;10310005;28;20046;-78
2022/10/20 20:20:13;;;;;;;15.13;7.93;;;;;;;;;;10305060;28;20030;-78
2022/10/20 20:25:13;;;;;;;23.77;8.00;;;;;;;;;;10306734;28;20420;-75
2022/10/20 20:30:13;;;;;;;15.82;8.63;;;;;;;;;;10301937;28;20041;-77
2022/10/20 20:35:14;;;;;;;17.80;10.15;;;;;;;;;;10309747;28;20110;-74
2022/10/20 20:40:14;;;;;;;18.03;9.43;;;;;;;;;;10311487;28;20262;-72
2022/10/20 20:45:15;;;;;;;23.98;11.68;;;;;;;;;;10313507;28;20093;-78
2022/10/20 20:50:15;;;;;;;24.43;11.63;;;;;;;;;;10308090;28;20026;-74
2022/10/20 20:55:15;;;;;;;26.40;12.37;;;;;;;;;;10307474;28;20507;-77
2022/10/20 21:00:16;;;;;;;21.73;10.97;;;;;;;;;;10325835;28;20125;-75
2022/10/20 21:05:16;;;;;;;21.30;9.83;;;;;;;;;;10306549;28;20034;-72
2022/10/20 21:10:16;;;;;;;21.58;10.77;;;;;;;;;;10310220;28;20101;-77
2022/10/20 21:15:16;;;;;;;21.30;10.52;;;;;;;;;;10316133;28;20037;-77
2022/10/20 21:20:20;;;;;;;20.95;10.32;;;;;;;;;;10312800;28;20489;-76
2022/10/20 21:25:21;;;;;;;24.52;12.52;;;;;;;;;;10309056;28;20033;-75
2022/10/20 21:30:22;;;;;;;21.38;10.13;;;;;;;;;;10318733;28;20018;-76
2022/10/20 21:35:23;;;;;;;20.15;9.65;;;;;;;;;;10310909;28;20073;-77
2022/10/20 21:40:23;;;;;;;22.08;10.25;;;;;;;;;;10313439;28;20197;-77
2022/10/20 21:45:24;;;;;;;23.52;9.50;;;;;;;;;;10312141;28;20047;-73
2022/10/20 21:50:24;;;;;;;20.75;9.48;;;;;;;;;;10309860;28;20052;-75
2022/10/20 21:55:24;;;;;;;16.67;8.57;;;;;;;;;;10272930;28;20092;-76
2022/10/20 22:00:24;;;;;;;14.70;6.85;;;;;;;;;;10299412;28;20022;-77
2022/10/20 22:05:25;;;;;;;112.90;102.88;;;;;;;;;;10286947;28;20031;-79
2022/10/20 22:10:25;;;;;;;16.05;7.32;;;;;;;;;;10245777;28;20129;-76
2022/10/20 22:15:26;;;;;;;14.63;8.35;;;;;;;;;;10245330;28;20127;-77
2022/10/20 22:20:26;;;;;;;14.20;7.47;;;;;;;;;;10260474;28;20035;-78
2022/10/20 22:25:26;;;;;;;8.73;5.78;;;;;;;;;;10259530;28;20026;-78
2022/10/20 22:30:26;;;;;;;15.90;7.40;;;;;;;;;;10258747;28;20517;-77
2022/10/20 22:35:27;;;;;;;11.38;7.13;;;;;;;;;;10243061;28;20031;-81
2022/10/20 22:40:27;;;;;;;14.00;6.60;;;;;;;;;;10258121;28;20130;-79
2022/10/20 22:45:27;;;;;;;13.00;7.70;;;;;;;;;;10243335;28;20031;-73
2022/10/20 22:50:28;;;;;;;11.93;7.17;;;;;;;;;;10258347;28;20082;-77
2022/10/20 22:55:28;;;;;;;11.07;6.67;;;;;;;;;;10242998;28;20106;-78
2022/10/20 23:00:28;;;;;;;13.00;6.78;;;;;;;;;;10258383;28;20547;-75
2022/10/20 23:05:30;;;;;;;12.95;8.05;;;;;;;;;;10257562;28;20038;-79
2022/10/20 23:10:31;;;;;;;11.57;6.95;;;;;;;;;;10254358;28;20034;-78
2022/10/20 23:15:31;;;;;;;12.38;7.90;;;;;;;;;;10283114;28;20034;-73
2022/10/20 23:20:31;;;;;;;15.07;8.60;;;;;;;;;;10281246;28;20033;-80
2022/10/20 23:25:32;;;;;;;12.20;8.10;;;;;;;;;;10296809;28;20066;-78
2022/10/20 23:30:33;;;;;;;18.23;8.32;;;;;;;;;;10297083;28;20022;-79
2022/10/20 23:35:33;;;;;;;14.90;8.18;;;;;;;;;;10281318;28;20655;-74
2022/10/20 23:40:34;;;;;;;16.77;8.80;;;;;;;;;;10282427;28;20047;-78
2022/10/20 23:45:35;;;;;;;16.88;8.15;;;;;;;;;;10260294;28;20022;-77
2022/10/20 23:50:35;;;;;;;17.30;8.02;;;;;;;;;;10265410;28;20021;-80
2022/10/20 23:55:35;;;;;;;12.52;8.73;;;;;;;;;;10281029;28;20026;-74
